sensor_id;sensor_type;location;lat;lon;timestamp;pressure;altitude;pressure_sealevel;temperature;humidity
72896;BME280;61036;53.224;6.554;2022-11-11T00:00:03;102579.00;;;11.48;100.00
72896;BME280;61036;53.224;6.554;2022-11-11T00:02:49;102568.25;;;11.46;100.00
72896;BME280;61036;53.224;6.554;2022-11-11T00:05:33;102564.06;;;11.40;100.00
72896;BME280;61036;53.224;6.554;2022-11-11T00:08:21;102577.81;;;11.36;100.00
72896;BME280;61036;53.224;6.554;2022-11-11T00:11:07;102570.72;;;11.33;100.00
72896;BME280;61036;53.224;6.554;2022-11-11T00:13:53;102566.78;;;11.40;100.00
72896;BME280;61036;53.224;6.554;2022-11-11T00:16:39;102582.50;;;11.32;100.00
72896;BME280;61036;53.224;6.554;2022-11-11T00:19:42;102581.53;;;11.33;100.00
72896;BME280;61036;53.224;6.554;2022-11-11T00:22:45;102579.84;;;11.31;100.00
72896;BME280;61036;53.224;6.554;2022-11-11T00:25:52;102561.59;;;11.36;100.00
72896;BME280;61036;53.224;6.554;2022-11-11T00:28:36;102558.84;;;11.37;100.00
72896;BME280;61036;53.224;6.554;2022-11-11T00:31:20;102550.13;;;11.31;100.00
72896;BME280;61036;53.224;6.554;2022-11-11T00:34:05;102549.28;;;11.30;100.00
72896;BME280;61036;53.224;6.554;2022-11-11T00:36:49;102556.19;;;11.36;100.00
72896;BME280;61036;53.224;6.554;2022-11-11T00:39:33;102555.38;;;11.34;100.00
72896;BME280;61036;53.224;6.554;2022-11-11T00:42:17;102552.94;;;11.29;100.00
72896;BME280;61036;53.224;6.554;2022-11-11T00:45:01;102557.22;;;11.33;100.00
72896;BME280;61036;53.224;6.554;2022-11-11T00:47:46;102550.88;;;11.34;100.00
72896;BME280;61036;53.224;6.554;2022-11-11T00:50:49;102556.13;;;11.37;100.00
72896;BME280;61036;53.224;6.554;2022-11-11T00:53:42;102558.56;;;11.42;100.00
72896;BME280;61036;53.224;6.554;2022-11-11T00:56:27;102555.31;;;11.35;100.00
72896;BME280;61036;53.224;6.554;2022-11-11T00:59:11;102545.38;;;11.36;100.00
72896;BME280;61036;53.224;6.554;2022-11-11T01:01:58;102547.22;;;11.35;100.00
72896;BME280;61036;53.224;6.554;2022-11-11T01:04:43;102541.50;;;11.41;100.00
72896;BME280;61036;53.224;6.554;2022-11-11T01:07:27;102541.50;;;11.41;100.00
72896;BME280;61036;53.224;6.554;2022-11-11T01:10:15;102535.06;;;11.44;100.00
72896;BME280;61036;53.224;6.554;2022-11-11T01:13:23;102549.19;;;11.49;100.00
72896;BME280;61036;53.224;6.554;2022-11-11T01:16:13;102536.25;;;11.38;100.00
72896;BME280;61036;53.224;6.554;2022-11-11T01:18:58;102532.69;;;11.38;100.00
72896;BME280;61036;53.224;6.554;2022-11-11T01:21:42;102537.06;;;11.40;100.00
72896;BME280;61036;53.224;6.554;2022-11-11T01:24:27;102522.91;;;11.35;100.00
72896;BME280;61036;53.224;6.554;2022-11-11T01:27:11;102525.63;;;11.35;100.00
72896;BME280;61036;53.224;6.554;2022-11-11T01:29:56;102518.38;;;11.36;100.00
72896;BME280;61036;53.224;6.554;2022-11-11T01:32:40;102523.88;;;11.34;100.00
72896;BME280;61036;53.224;6.554;2022-11-11T01:35:25;102522.97;;;11.34;100.00
72896;BME280;61036;53.224;6.554;2022-11-11T01:38:09;102525.50;;;11.37;100.00
72896;BME280;61036;53.224;6.554;2022-11-11T01:40:54;102540.78;;;11.38;100.00
72896;BME280;61036;53.224;6.554;2022-11-11T01:43:38;102531.16;;;11.32;100.00
72896;BME280;61036;53.224;6.554;2022-11-11T01:46:50;102537.22;;;11.37;100.00
72896;BME280;61036;53.224;6.554;2022-11-11T01:49:45;102535.38;;;11.38;100.00
72896;BME280;61036;53.224;6.554;2022-11-11T01:52:41;102549.06;;;11.35;100.00
72896;BME280;61036;53.224;6.554;2022-11-11T01:55:28;102556.13;;;11.37;100.00
72896;BME280;61036;53.224;6.554;2022-11-11T01:58:14;102557.63;;;11.43;100.00
72896;BME280;61036;53.224;6.554;2022-11-11T02:01:01;102555.81;;;11.43;100.00
72896;BME280;61036;53.224;6.554;2022-11-11T02:03:50;102555.22;;;11.37;100.00
72896;BME280;61036;53.224;6.554;2022-11-11T02:06:58;102549.06;;;11.35;100.00
72896;BME280;61036;53.224;6.554;2022-11-11T02:09:46;102557.00;;;11.38;100.00
72896;BME280;61036;53.224;6.554;2022-11-11T02:12:31;102569.47;;;11.40;100.00
72896;BME280;61036;53.224;6.554;2022-11-11T02:15:36;102576.47;;;11.44;100.00
72896;BME280;61036;53.224;6.554;2022-11-11T02:18:20;102580.69;;;11.50;100.00
72896;BME280;61036;53.224;6.554;2022-11-11T02:21:04;102570.25;;;11.42;100.00
72896;BME280;61036;53.224;6.554;2022-11-11T02:24:03;102576.53;;;11.43;100.00
72896;BME280;61036;53.224;6.554;2022-11-11T02:26:51;102575.09;;;11.36;100.00
72896;BME280;61036;53.224;6.554;2022-11-11T02:29:36;102565.00;;;11.39;100.00
72896;BME280;61036;53.224;6.554;2022-11-11T02:32:23;102564.38;;;11.34;100.00
72896;BME280;61036;53.224;6.554;2022-11-11T02:38:04;102550.09;;;11.32;100.00
72896;BME280;61036;53.224;6.554;2022-11-11T02:40:51;102561.59;;;11.36;100.00
72896;BME280;61036;53.224;6.554;2022-11-11T02:43:54;102552.84;;;11.31;100.00
72896;BME280;61036;53.224;6.554;2022-11-11T02:46:41;102552.06;;;11.29;100.00
72896;BME280;61036;53.224;6.554;2022-11-11T02:49:25;102556.34;;;11.33;100.00
72896;BME280;61036;53.224;6.554;2022-11-11T02:52:10;102568.34;;;11.27;100.00
72896;BME280;61036;53.224;6.554;2022-11-11T02:54:55;102573.06;;;11.22;100.00
72896;BME280;61036;53.224;6.554;2022-11-11T02:57:38;102577.00;;;11.16;100.00
72896;BME280;61036;53.224;6.554;2022-11-11T03:00:23;102567.28;;;11.12;100.00
72896;BME280;61036;53.224;6.554;2022-11-11T03:03:08;102564.72;;;11.09;100.00
72896;BME280;61036;53.224;6.554;2022-11-11T03:05:53;102560.44;;;11.05;100.00
72896;BME280;61036;53.224;6.554;2022-11-11T03:08:38;102578.38;;;11.06;100.00
72896;BME280;61036;53.224;6.554;2022-11-11T03:11:23;102582.25;;;11.01;100.00
72896;BME280;61036;53.224;6.554;2022-11-11T03:14:13;102594.31;;;10.93;100.00
72896;BME280;61036;53.224;6.554;2022-11-11T03:16:57;102584.75;;;10.86;100.00
72896;BME280;61036;53.224;6.554;2022-11-11T03:20:00;102582.50;;;10.96;100.00
72896;BME280;61036;53.224;6.554;2022-11-11T03:23:05;102587.53;;;10.85;100.00
72896;BME280;61036;53.224;6.554;2022-11-11T03:25:50;102591.34;;;10.81;100.00
72896;BME280;61036;53.224;6.554;2022-11-11T03:28:34;102593.22;;;10.79;100.00
72896;BME280;61036;53.224;6.554;2022-11-11T03:31:18;102597.22;;;10.70;100.00
72896;BME280;61036;53.224;6.554;2022-11-11T03:34:02;102592.34;;;10.78;100.00
72896;BME280;61036;53.224;6.554;2022-11-11T03:37:04;102590.16;;;10.86;100.00
72896;BME280;61036;53.224;6.554;2022-11-11T03:40:08;102585.34;;;10.74;100.00
72896;BME280;61036;53.224;6.554;2022-11-11T03:42:53;102580.69;;;10.78;100.00
72896;BME280;61036;53.224;6.554;2022-11-11T03:45:38;102587.09;;;10.75;100.00
72896;BME280;61036;53.224;6.554;2022-11-11T03:48:22;102582.38;;;10.80;100.00
72896;BME280;61036;53.224;6.554;2022-11-11T03:51:07;102592.63;;;10.72;100.00
72896;BME280;61036;53.224;6.554;2022-11-11T03:53:51;102584.03;;;10.64;100.00
72896;BME280;61036;53.224;6.554;2022-11-11T03:56:36;102583.06;;;10.65;100.00
72896;BME280;61036;53.224;6.554;2022-11-11T03:59:20;102585.56;;;10.69;100.00
72896;BME280;61036;53.224;6.554;2022-11-11T04:02:04;102590.38;;;10.63;100.00
72896;BME280;61036;53.224;6.554;2022-11-11T04:05:07;102590.53;;;10.60;100.00
72896;BME280;61036;53.224;6.554;2022-11-11T04:08:12;102589.28;;;10.67;100.00
72896;BME280;61036;53.224;6.554;2022-11-11T04:11:21;102591.97;;;10.67;100.00
72896;BME280;61036;53.224;6.554;2022-11-11T04:14:09;102588.75;;;10.59;100.00
72896;BME280;61036;53.224;6.554;2022-11-11T04:17:12;102584.31;;;10.58;100.00
72896;BME280;61036;53.224;6.554;2022-11-11T04:19:56;102588.47;;;10.65;100.00
72896;BME280;61036;53.224;6.554;2022-11-11T04:22:59;102606.56;;;10.63;100.00
72896;BME280;61036;53.224;6.554;2022-11-11T04:25:44;102597.53;;;10.64;100.00
72896;BME280;61036;53.224;6.554;2022-11-11T04:28:34;102601.94;;;10.65;100.00
72896;BME280;61036;53.224;6.554;2022-11-11T04:31:37;102594.09;;;10.60;100.00
72896;BME280;61036;53.224;6.554;2022-11-11T04:34:46;102589.56;;;10.61;100.00
72896;BME280;61036;53.224;6.554;2022-11-11T04:37:34;102594.81;;;10.64;100.00
72896;BME280;61036;53.224;6.554;2022-11-11T04:40:20;102594.66;;;10.67;100.00
72896;BME280;61036;53.224;6.554;2022-11-11T04:43:24;102587.75;;;10.61;100.00
72896;BME280;61036;53.224;6.554;2022-11-11T04:46:08;102596.94;;;10.57;100.00
72896;BME280;61036;53.224;6.554;2022-11-11T04:48:52;102596.84;;;10.59;100.00
72896;BME280;61036;53.224;6.554;2022-11-11T04:51:36;102594.09;;;10.60;100.00
72896;BME280;61036;53.224;6.554;2022-11-11T04:54:39;102596.78;;;10.60;100.00
72896;BME280;61036;53.224;6.554;2022-11-11T04:57:45;102589.13;;;10.51;100.00
72896;BME280;61036;53.224;6.554;2022-11-11T05:00:30;102590.81;;;10.53;100.00
72896;BME280;61036;53.224;6.554;2022-11-11T05:03:16;102590.88;;;10.52;100.00
72896;BME280;61036;53.224;6.554;2022-11-11T05:06:04;102591.75;;;10.52;100.00
72896;BME280;61036;53.224;6.554;2022-11-11T05:09:07;102600.94;;;10.48;100.00
72896;BME280;61036;53.224;6.554;2022-11-11T05:11:53;102594.38;;;10.54;100.00
72896;BME280;61036;53.224;6.554;2022-11-11T05:14:38;102596.28;;;10.52;100.00
72896;BME280;61036;53.224;6.554;2022-11-11T05:17:41;102601.59;;;10.53;100.00
72896;BME280;61036;53.224;6.554;2022-11-11T05:20:57;102605.50;;;10.46;100.00
72896;BME280;61036;53.224;6.554;2022-11-11T05:24:00;102603.06;;;10.42;100.00
72896;BME280;61036;53.224;6.554;2022-11-11T05:27:03;102609.03;;;10.48;100.00
72896;BME280;61036;53.224;6.554;2022-11-11T05:29:48;102605.47;;;10.48;100.00
72896;BME280;61036;53.224;6.554;2022-11-11T05:32:32;102604.72;;;10.44;100.00
72896;BME280;61036;53.224;6.554;2022-11-11T05:35:19;102606.47;;;10.45;100.00
72896;BME280;61036;53.224;6.554;2022-11-11T05:38:03;102613.56;;;10.48;100.00
72896;BME280;61036;53.224;6.554;2022-11-11T05:41:04;102614.50;;;10.47;100.00
72896;BME280;61036;53.224;6.554;2022-11-11T05:43:48;102611.66;;;10.50;100.00
72896;BME280;61036;53.224;6.554;2022-11-11T05:46:33;102612.81;;;10.44;100.00
72896;BME280;61036;53.224;6.554;2022-11-11T05:49:17;102616.38;;;10.45;100.00
72896;BME280;61036;53.224;6.554;2022-11-11T05:52:01;102617.81;;;10.33;100.00
72896;BME280;61036;53.224;6.554;2022-11-11T05:54:46;102621.47;;;10.32;100.00
72896;BME280;61036;53.224;6.554;2022-11-11T05:57:30;102629.19;;;10.19;100.00
72896;BME280;61036;53.224;6.554;2022-11-11T06:00:15;102628.41;;;10.17;100.00
72896;BME280;61036;53.224;6.554;2022-11-11T06:03:03;102624.16;;;10.12;100.00
72896;BME280;61036;53.224;6.554;2022-11-11T06:05:48;102634.13;;;10.10;100.00
72896;BME280;61036;53.224;6.554;2022-11-11T06:08:32;102632.97;;;10.15;100.00
72896;BME280;61036;53.224;6.554;2022-11-11T06:11:16;102638.38;;;10.15;100.00
72896;BME280;61036;53.224;6.554;2022-11-11T06:14:01;102638.09;;;10.21;100.00
72896;BME280;61036;53.224;6.554;2022-11-11T06:16:45;102630.81;;;10.23;100.00
72896;BME280;61036;53.224;6.554;2022-11-11T06:19:29;102634.38;;;10.24;100.00
72896;BME280;61036;53.224;6.554;2022-11-11T06:22:14;102646.75;;;10.29;100.00
72896;BME280;61036;53.224;6.554;2022-11-11T06:25:18;102641.72;;;10.41;100.00
72896;BME280;61036;53.224;6.554;2022-11-11T06:28:21;102640.38;;;10.51;100.00
72896;BME280;61036;53.224;6.554;2022-11-11T06:31:06;102645.22;;;10.63;100.00
72896;BME280;61036;53.224;6.554;2022-11-11T06:33:51;102646.09;;;10.64;100.00
72896;BME280;61036;53.224;6.554;2022-11-11T06:36:35;102649.50;;;10.67;100.00
72896;BME280;61036;53.224;6.554;2022-11-11T06:39:19;102647.69;;;10.68;100.00
72896;BME280;61036;53.224;6.554;2022-11-11T06:42:04;102646.75;;;10.69;100.00
72896;BME280;61036;53.224;6.554;2022-11-11T06:44:48;102651.91;;;10.73;100.00
72896;BME280;61036;53.224;6.554;2022-11-11T06:47:32;102658.13;;;10.75;100.00
72896;BME280;61036;53.224;6.554;2022-11-11T06:50:16;102662.84;;;10.70;100.00
72896;BME280;61036;53.224;6.554;2022-11-11T06:53:05;102673.44;;;10.75;100.00
72896;BME280;61036;53.224;6.554;2022-11-11T06:55:51;102677.34;;;10.68;100.00
72896;BME280;61036;53.224;6.554;2022-11-11T06:58:36;102680.97;;;10.68;100.00
72896;BME280;61036;53.224;6.554;2022-11-11T07:01:20;102691.81;;;10.67;100.00
72896;BME280;61036;53.224;6.554;2022-11-11T07:04:05;102694.50;;;10.67;100.00
72896;BME280;61036;53.224;6.554;2022-11-11T07:06:49;102692.69;;;10.67;100.00
72896;BME280;61036;53.224;6.554;2022-11-11T07:09:34;102693.63;;;10.66;100.00
72896;BME280;61036;53.224;6.554;2022-11-11T07:12:18;102696.25;;;10.68;100.00
72896;BME280;61036;53.224;6.554;2022-11-11T07:15:02;102698.88;;;10.69;100.00
72896;BME280;61036;53.224;6.554;2022-11-11T07:17:48;102705.84;;;10.75;100.00
72896;BME280;61036;53.224;6.554;2022-11-11T07:20:32;102700.34;;;10.76;100.00
72896;BME280;61036;53.224;6.554;2022-11-11T07:23:18;102706.50;;;10.80;100.00
72896;BME280;61036;53.224;6.554;2022-11-11T07:26:02;102707.66;;;10.74;100.00
72896;BME280;61036;53.224;6.554;2022-11-11T07:28:47;102713.78;;;10.78;100.00
72896;BME280;61036;53.224;6.554;2022-11-11T07:31:34;102721.66;;;10.83;100.00
72896;BME280;61036;53.224;6.554;2022-11-11T07:34:18;102722.56;;;10.83;100.00
72896;BME280;61036;53.224;6.554;2022-11-11T07:37:02;102727.66;;;10.89;100.00
72896;BME280;61036;53.224;6.554;2022-11-11T07:39:47;102740.25;;;10.89;100.00
72896;BME280;61036;53.224;6.554;2022-11-11T07:42:31;102743.38;;;10.80;100.00
72896;BME280;61036;53.224;6.554;2022-11-11T07:45:15;102739.91;;;10.78;100.00
72896;BME280;61036;53.224;6.554;2022-11-11T07:47:59;102741.78;;;10.75;100.00
72896;BME280;61036;53.224;6.554;2022-11-11T07:50:44;102743.34;;;10.81;100.00
72896;BME280;61036;53.224;6.554;2022-11-11T07:53:27;102748.59;;;10.84;100.00
72896;BME280;61036;53.224;6.554;2022-11-11T07:56:12;102750.47;;;10.82;100.00
72896;BME280;61036;53.224;6.554;2022-11-11T07:58:56;102753.13;;;10.84;100.00
72896;BME280;61036;53.224;6.554;2022-11-11T08:01:41;102752.97;;;10.87;100.00
72896;BME280;61036;53.224;6.554;2022-11-11T08:04:25;102760.25;;;10.85;100.00
72896;BME280;61036;53.224;6.554;2022-11-11T08:07:10;102764.66;;;10.87;100.00
72896;BME280;61036;53.224;6.554;2022-11-11T08:09:55;102770.22;;;10.83;100.00
72896;BME280;61036;53.224;6.554;2022-11-11T08:12:39;102774.28;;;10.93;100.00
72896;BME280;61036;53.224;6.554;2022-11-11T08:15:41;102779.47;;;10.97;100.00
72896;BME280;61036;53.224;6.554;2022-11-11T08:18:26;102781.28;;;10.97;100.00
72896;BME280;61036;53.224;6.554;2022-11-11T08:21:11;102778.41;;;11.02;100.00
72896;BME280;61036;53.224;6.554;2022-11-11T08:23:55;102780.63;;;10.92;100.00
72896;BME280;61036;53.224;6.554;2022-11-11T08:26:39;102789.53;;;10.94;100.00
72896;BME280;61036;53.224;6.554;2022-11-11T08:29:23;102791.13;;;10.98;100.00
72896;BME280;61036;53.224;6.554;2022-11-11T08:32:07;102796.41;;;11.01;100.00
72896;BME280;61036;53.224;6.554;2022-11-11T08:34:52;102782.31;;;10.94;100.00
72896;BME280;61036;53.224;6.554;2022-11-11T08:37:36;102797.72;;;10.92;100.00
72896;BME280;61036;53.224;6.554;2022-11-11T08:40:21;102802.97;;;10.95;100.00
72896;BME280;61036;53.224;6.554;2022-11-11T08:43:05;102800.00;;;11.02;100.00
72896;BME280;61036;53.224;6.554;2022-11-11T08:45:53;102804.56;;;10.99;100.00
72896;BME280;61036;53.224;6.554;2022-11-11T08:48:38;102810.03;;;10.98;100.00
72896;BME280;61036;53.224;6.554;2022-11-11T08:51:24;102808.22;;;10.98;100.00
72896;BME280;61036;53.224;6.554;2022-11-11T08:54:08;102814.41;;;11.01;100.00
72896;BME280;61036;53.224;6.554;2022-11-11T08:56:54;102819.06;;;10.97;100.00
72896;BME280;61036;53.224;6.554;2022-11-11T08:59:41;102820.09;;;10.94;100.00
72896;BME280;61036;53.224;6.554;2022-11-11T09:02:27;102825.56;;;10.93;100.00
72896;BME280;61036;53.224;6.554;2022-11-11T09:05:15;102822.00;;;10.92;100.00
72896;BME280;61036;53.224;6.554;2022-11-11T09:08:04;102820.50;;;10.85;100.00
72896;BME280;61036;53.224;6.554;2022-11-11T09:10:50;102829.28;;;10.90;100.00
72896;BME280;61036;53.224;6.554;2022-11-11T09:13:34;102832.72;;;10.94;100.00
72896;BME280;61036;53.224;6.554;2022-11-11T09:16:18;102827.25;;;10.95;100.00
72896;BME280;61036;53.224;6.554;2022-11-11T09:19:05;102833.59;;;10.94;100.00
72896;BME280;61036;53.224;6.554;2022-11-11T09:21:50;102836.38;;;10.93;100.00
72896;BME280;61036;53.224;6.554;2022-11-11T09:24:35;102832.81;;;10.92;100.00
72896;BME280;61036;53.224;6.554;2022-11-11T09:27:20;102842.38;;;10.99;100.00
72896;BME280;61036;53.224;6.554;2022-11-11T09:30:05;102837.84;;;11.00;100.00
72896;BME280;61036;53.224;6.554;2022-11-11T09:32:50;102843.47;;;10.95;100.00
72896;BME280;61036;53.224;6.554;2022-11-11T09:35:35;102851.06;;;10.86;100.00
72896;BME280;61036;53.224;6.554;2022-11-11T09:38:19;102857.84;;;10.96;100.00
72896;BME280;61036;53.224;6.554;2022-11-11T09:41:26;102867.13;;;10.89;100.00
72896;BME280;61036;53.224;6.554;2022-11-11T09:44:41;102883.72;;;10.80;100.00
72896;BME280;61036;53.224;6.554;2022-11-11T09:48:17;102874.84;;;10.78;100.00
72896;BME280;61036;53.224;6.554;2022-11-11T09:51:08;102884.53;;;10.82;100.00
72896;BME280;61036;53.224;6.554;2022-11-11T09:54:05;102874.09;;;10.74;100.00
72896;BME280;61036;53.224;6.554;2022-11-11T09:56:51;102879.84;;;10.65;100.00
72896;BME280;61036;53.224;6.554;2022-11-11T09:59:42;102884.06;;;10.72;100.00
72896;BME280;61036;53.224;6.554;2022-11-11T10:02:40;102889.88;;;10.83;100.00
72896;BME280;61036;53.224;6.554;2022-11-11T10:05:57;102883.38;;;10.67;100.00
72896;BME280;61036;53.224;6.554;2022-11-11T10:08:59;102882.69;;;10.62;100.00
72896;BME280;61036;53.224;6.554;2022-11-11T10:12:02;102880.50;;;10.71;100.00
72896;BME280;61036;53.224;6.554;2022-11-11T10:14:50;102877.16;;;10.65;100.00
72896;BME280;61036;53.224;6.554;2022-11-11T10:20:31;102879.81;;;10.66;100.00
72896;BME280;61036;53.224;6.554;2022-11-11T10:23:20;102878.84;;;10.67;100.00
72896;BME280;61036;53.224;6.554;2022-11-11T10:26:37;102873.13;;;10.75;100.00
72896;BME280;61036;53.224;6.554;2022-11-11T10:29:25;102881.84;;;10.82;100.00
72896;BME280;61036;53.224;6.554;2022-11-11T10:32:32;102878.06;;;10.86;100.00
72896;BME280;61036;53.224;6.554;2022-11-11T10:35:19;102876.66;;;10.77;100.00
72896;BME280;61036;53.224;6.554;2022-11-11T10:41:26;102876.88;;;10.93;100.00
72896;BME280;61036;53.224;6.554;2022-11-11T10:44:28;102878.88;;;10.88;100.00
72896;BME280;61036;53.224;6.554;2022-11-11T10:47:24;102875.09;;;10.71;100.00
72896;BME280;61036;53.224;6.554;2022-11-11T10:50:20;102877.72;;;10.73;100.00
72896;BME280;61036;53.224;6.554;2022-11-11T10:53:14;102870.31;;;10.78;100.00
72896;BME280;61036;53.224;6.554;2022-11-11T10:56:07;102870.88;;;10.86;100.00
72896;BME280;61036;53.224;6.554;2022-11-11T10:59:03;102878.13;;;10.84;100.00
72896;BME280;61036;53.224;6.554;2022-11-11T11:01:57;102878.47;;;10.97;100.00
72896;BME280;61036;53.224;6.554;2022-11-11T11:04:58;102871.38;;;10.94;100.00
72896;BME280;61036;53.224;6.554;2022-11-11T11:07:48;102869.41;;;10.98;100.00
72896;BME280;61036;53.224;6.554;2022-11-11T11:10:38;102875.84;;;10.95;100.00
72896;BME280;61036;53.224;6.554;2022-11-11T11:13:31;102873.75;;;11.02;100.00
72896;BME280;61036;53.224;6.554;2022-11-11T11:16:24;102874.91;;;10.96;100.00
72896;BME280;61036;53.224;6.554;2022-11-11T11:19:17;102875.50;;;11.03;100.00
72896;BME280;61036;53.224;6.554;2022-11-11T11:22:02;102886.72;;;11.14;100.00
72896;BME280;61036;53.224;6.554;2022-11-11T11:24:47;102875.38;;;11.06;100.00
72896;BME280;61036;53.224;6.554;2022-11-11T11:27:34;102870.09;;;11.03;100.00
72896;BME280;61036;53.224;6.554;2022-11-11T11:30:24;102881.31;;;11.14;100.00
72896;BME280;61036;53.224;6.554;2022-11-11T11:33:09;102867.09;;;11.30;100.00
72896;BME280;61036;53.224;6.554;2022-11-11T11:35:56;102865.50;;;11.26;100.00
72896;BME280;61036;53.224;6.554;2022-11-11T11:38:43;102863.09;;;11.19;100.00
72896;BME280;61036;53.224;6.554;2022-11-11T11:41:44;102860.16;;;11.24;100.00
72896;BME280;61036;53.224;6.554;2022-11-11T11:44:34;102866.56;;;11.21;100.00
72896;BME280;61036;53.224;6.554;2022-11-11T11:47:36;102869.94;;;11.27;100.00
72896;BME280;61036;53.224;6.554;2022-11-11T11:50:33;102870.63;;;11.32;100.00
72896;BME280;61036;53.224;6.554;2022-11-11T11:53:41;102878.09;;;11.25;100.00
72896;BME280;61036;53.224;6.554;2022-11-11T11:56:39;102875.28;;;11.28;100.00
72896;BME280;61036;53.224;6.554;2022-11-11T11:59:32;102880.75;;;11.27;100.00
72896;BME280;61036;53.224;6.554;2022-11-11T12:05:26;102878.09;;;11.25;100.00
72896;BME280;61036;53.224;6.554;2022-11-11T12:14:54;102886.56;;;11.17;100.00
72896;BME280;61036;53.224;6.554;2022-11-11T12:17:55;102889.19;;;11.19;100.00
72896;BME280;61036;53.224;6.554;2022-11-11T12:20:55;102888.19;;;11.21;100.00
72896;BME280;61036;53.224;6.554;2022-11-11T12:24:12;102884.75;;;11.18;100.00
72896;BME280;61036;53.224;6.554;2022-11-11T12:27:12;102886.44;;;11.20;100.00
72896;BME280;61036;53.224;6.554;2022-11-11T12:30:23;102892.44;;;11.27;100.00
72896;BME280;61036;53.224;6.554;2022-11-11T12:46:25;102906.22;;;11.21;100.00
72896;BME280;61036;53.224;6.554;2022-11-11T12:56:31;102911.13;;;11.32;100.00
72896;BME280;61036;53.224;6.554;2022-11-11T13:00:00;102910.41;;;11.28;100.00
72896;BME280;61036;53.224;6.554;2022-11-11T13:14:48;102918.84;;;11.20;100.00
72896;BME280;61036;53.224;6.554;2022-11-11T13:17:34;102918.28;;;11.12;100.00
72896;BME280;61036;53.224;6.554;2022-11-11T13:23:24;102927.81;;;11.21;100.00
72896;BME280;61036;53.224;6.554;2022-11-11T13:26:25;102928.34;;;11.29;100.00
72896;BME280;61036;53.224;6.554;2022-11-11T13:32:39;102931.13;;;11.07;100.00
72896;BME280;61036;53.224;6.554;2022-11-11T13:38:27;102932.66;;;11.13;100.00
72896;BME280;61036;53.224;6.554;2022-11-11T13:41:42;102935.59;;;11.08;100.00
72896;BME280;61036;53.224;6.554;2022-11-11T13:44:38;102927.66;;;11.04;100.00
72896;BME280;61036;53.224;6.554;2022-11-11T13:47:35;102936.72;;;11.03;100.00
72896;BME280;61036;53.224;6.554;2022-11-11T13:50:36;102945.69;;;11.03;100.00
72896;BME280;61036;53.224;6.554;2022-11-11T13:53:28;102948.06;;;11.11;100.00
72896;BME280;61036;53.224;6.554;2022-11-11T13:56:45;102942.81;;;11.08;100.00
72896;BME280;61036;53.224;6.554;2022-11-11T13:59:33;102953.47;;;11.11;100.00
72896;BME280;61036;53.224;6.554;2022-11-11T14:07:54;102955.69;;;11.21;100.00
72896;BME280;61036;53.224;6.554;2022-11-11T14:10:51;102954.81;;;11.21;100.00
72896;BME280;61036;53.224;6.554;2022-11-11T14:13:38;102957.78;;;11.15;100.00
72896;BME280;61036;53.224;6.554;2022-11-11T14:22:29;102952.09;;;11.01;100.00
72896;BME280;61036;53.224;6.554;2022-11-11T14:25:26;102962.97;;;10.99;100.00
72896;BME280;61036;53.224;6.554;2022-11-11T14:28:22;102956.22;;;11.09;100.00
72896;BME280;61036;53.224;6.554;2022-11-11T14:34:29;102956.84;;;10.95;100.00
72896;BME280;61036;53.224;6.554;2022-11-11T14:40:30;102954.00;;;10.98;100.00
72896;BME280;61036;53.224;6.554;2022-11-11T14:43:34;102952.94;;;11.03;100.00
72896;BME280;61036;53.224;6.554;2022-11-11T14:46:19;102953.31;;;10.93;100.00
72896;BME280;61036;53.224;6.554;2022-11-11T14:49:06;102946.19;;;10.92;100.00
72896;BME280;61036;53.224;6.554;2022-11-11T14:51:56;102949.34;;;11.02;100.00
72896;BME280;61036;53.224;6.554;2022-11-11T14:58:18;102963.13;;;10.96;100.00
72896;BME280;61036;53.224;6.554;2022-11-11T15:01:12;102960.28;;;10.99;100.00
72896;BME280;61036;53.224;6.554;2022-11-11T15:04:01;102962.16;;;10.97;100.00
72896;BME280;61036;53.224;6.554;2022-11-11T15:07:20;102962.97;;;10.99;100.00
72896;BME280;61036;53.224;6.554;2022-11-11T15:21:36;102976.53;;;10.97;100.00
72896;BME280;61036;53.224;6.554;2022-11-11T15:24:44;102974.97;;;10.92;100.00
72896;BME280;61036;53.224;6.554;2022-11-11T15:30:21;102981.69;;;10.82;100.00
72896;BME280;61036;53.224;6.554;2022-11-11T15:36:12;102981.91;;;10.77;100.00
72896;BME280;61036;53.224;6.554;2022-11-11T15:39:04;102983.28;;;10.87;100.00
72896;BME280;61036;53.224;6.554;2022-11-11T15:41:52;102980.38;;;10.92;100.00
72896;BME280;61036;53.224;6.554;2022-11-11T15:44:37;102978.97;;;10.83;100.00
72896;BME280;61036;53.224;6.554;2022-11-11T15:47:21;102975.22;;;10.86;100.00
72896;BME280;61036;53.224;6.554;2022-11-11T15:53:11;102987.19;;;10.80;100.00
72896;BME280;61036;53.224;6.554;2022-11-11T15:55:56;102977.06;;;10.85;100.00
72896;BME280;61036;53.224;6.554;2022-11-11T15:58:41;102979.56;;;10.90;100.00
72896;BME280;61036;53.224;6.554;2022-11-11T16:01:26;102978.50;;;10.94;100.00
72896;BME280;61036;53.224;6.554;2022-11-11T16:04:17;102977.78;;;10.89;100.00
72896;BME280;61036;53.224;6.554;2022-11-11T16:07:02;102983.06;;;10.92;100.00
72896;BME280;61036;53.224;6.554;2022-11-11T16:09:47;102983.06;;;10.92;100.00
72896;BME280;61036;53.224;6.554;2022-11-11T16:12:37;102984.75;;;10.94;100.00
72896;BME280;61036;53.224;6.554;2022-11-11T16:15:45;102986.53;;;10.95;100.00
72896;BME280;61036;53.224;6.554;2022-11-11T16:18:55;102987.41;;;10.96;100.00
72896;BME280;61036;53.224;6.554;2022-11-11T16:21:46;102987.31;;;10.97;100.00